Airfield :







YOU CAN JOIN US ON...

 
LOGIN :

Register | Disclaimer

   EN    FR    IT 

 









Legend :    VFR   Marginal VFR   IFR   Intensive IFR   Very Intensive IFR
Visi :
Ceiling :
>= 8 km
>= 3000ft
5 to 8 km
1000 to 3000 ft
1500m to 5 km
500 to 1000 ft
800 to 1500m
200 to 500 ft
< 800m
< 200 ft
Symbols :   Thunderstorms  Fog  Heavy snow  Heavy precipitations  Wind > 20 kt






- Airport Elevation : 477 ft
- IATA code : YHZ


CYHZ - Halifax Stanfield Int.

CURRENT METAR :
  • 010500Z 36007KT 15SM OVC003 M01/M01 A2986 RMK ST8 SLP120

EXPIRED METARs :
  • 010400Z 36008KT 15SM OVC002 M01/M01 A2987 RMK ST8 SLP123
  • 010300Z 36007KT 12SM OVC001 M01/M01 A2989 RMK ST8 SLP129
  • 010246Z 36007KT 8SM OVC001 M01/M01 A2989 RMK ST8 VIS LWR SW SLP129

TAF TAF CYHZ
Valid from the 01 at 06:00 until the 02 at 06:00 UTC


010538Z 0106/0206 36010KT 2SM -SNRA BR OVC003
TEMPO 0106/0109 P6SM NSW OVC005
PROB30 0106/0109 3SM -FZRA -PL BR
FM010900 01010KT 1SM -DZ BR OVC002
TEMPO 0109/0115 3SM -RA BR OVC006
FM011500 02010G20KT 3SM -DZ BR OVC008
TEMPO 0115/0122 P6SM NSW SCT008 OVC015
FM012200 04012KT 1SM -RA BR OVC003 RMK NXT FCST BY 010900Z



MET'MAP, your aeronautical weather chart ! - Copyright ORBIFLY December 2007 - Disclaimer

ORBIFLY MET'MAP TEAM :

Programming & Development : Alexandra Zaïnal
Concept & original design : Baudouin d'Aumeries
Assistance for programming : Marc-Olivier Méhu
Technical & hardware support : Manuel Goepfert

Contact : metmap@orbifly.com




SOURCES & CREDITS :

   NOAA